East Texas Regional Airport
KGGG : now visible

Airfield :











YOU CAN JOIN US ON...

 
LOGIN :

Register | Disclaimer

   EN    FR    IT 

 









Legend :    VFR   Marginal VFR   IFR   Intensive IFR   Very Intensive IFR
Visi :
Ceiling :
>= 8 km
>= 3000ft
5 to 8 km
1000 to 3000 ft
1500m to 5 km
500 to 1000 ft
800 to 1500m
200 to 500 ft
< 800m
< 200 ft
Symbols :   Thunderstorms  Fog  Heavy snow  Heavy precipitations  Wind > 20 kt






- Airport Elevation : 365 ft
- IATA code : GGG


KGGG - East Texas Regional

CURRENT METAR :
  • 231253Z 12003KT 10SM SCT042 06/03 A3014 RMK AO2 SLP210 T00560028

EXPIRED METARs :
  • 231153Z 15003KT 10SM CLR 05/02 A3014 RMK AO2 SLP209 T00500022 10072 20044 56016

TAF KGGG
Valid from the 23 at 12:00 until the 24 at 12:00 UTC


231120Z 2312/2412 16003KT P6SM BKN250
FM231500 16008KT P6SM VCSH OVC025
FM232100 16009KT 4SM -SHRA BR OVC007
FM240300 16012KT 2SM BR OVC004
FM240800 20019KT 6SM BR OVC007



MET'MAP, your aeronautical weather chart ! - Copyright ORBIFLY December 2007 - Disclaimer

ORBIFLY MET'MAP TEAM :

Programming & Development : Alexandra Zaïnal
Concept & original design : Baudouin d'Aumeries
Assistance for programming : Marc-Olivier Méhu
Technical & hardware support : Manuel Goepfert

Contact : metmap@orbifly.com




SOURCES & CREDITS :

   NOAA       Earth
Advisory